Time;durP1;ratioP1;P1;durP2;ratioP2;P2;SDS_P1;SDS_P2;PMS_P1;PMS_P2;Temp;Humidity;BMP_temperature;BMP_pressure;BME280_temperature;BME280_humidity;BME280_pressure;Samples;Min_cycle;Max_cycle;Signal;HPM_P1;HPM_P2
2020/12/04 00:00:13;;;;;;;82.28;42.83;;;6.30;82.50;;;;;;5053719;28;20047;-67
2020/12/04 00:02:39;;;;;;;68.65;37.33;;;6.30;82.70;;;;;;5054423;28;20102;-67
2020/12/04 00:05:06;;;;;;;24.10;14.73;;;6.30;82.80;;;;;;5054059;28;20083;-66
2020/12/04 00:07:32;;;;;;;29.48;15.70;;;6.30;82.40;;;;;;5053736;28;20396;-68
2020/12/04 00:09:58;;;;;;;31.15;17.65;;;6.30;82.30;;;;;;5053976;28;20033;-66
2020/12/04 00:12:24;;;;;;;62.40;30.10;;;6.20;82.20;;;;;;5053960;28;20025;-67
2020/12/04 00:14:50;;;;;;;77.47;34.63;;;6.20;82.40;;;;;;5053290;28;20072;-66
2020/12/04 00:17:16;;;;;;;119.20;48.40;;;6.20;82.40;;;;;;5052613;28;20060;-68
2020/12/04 00:19:42;;;;;;;55.72;25.73;;;6.30;82.20;;;;;;5054029;28;20033;-67
2020/12/04 00:22:08;;;;;;;97.30;44.10;;;6.20;82.30;;;;;;5053485;28;20021;-67
2020/12/04 00:24:33;;;;;;;70.63;31.85;;;6.30;82.10;;;;;;5053769;28;20033;-66
2020/12/04 00:26:59;;;;;;;53.38;27.17;;;6.30;81.80;;;;;;5053484;28;20494;-66
2020/12/04 00:29:29;;;;;;;75.15;36.50;;;6.30;82.10;;;;;;5053445;28;20074;-67
2020/12/04 00:31:55;;;;;;;42.95;21.67;;;6.30;82.00;;;;;;5053736;28;20035;-67
2020/12/04 00:34:21;;;;;;;62.47;29.88;;;6.30;82.10;;;;;;5053928;28;20063;-68
2020/12/04 00:36:48;;;;;;;54.13;26.95;;;6.30;82.20;;;;;;5053338;28;20029;-66
2020/12/04 00:39:13;;;;;;;57.22;27.80;;;6.30;82.10;;;;;;5052074;28;20029;-69
2020/12/04 00:41:39;;;;;;;196.52;91.13;;;6.30;82.20;;;;;;5053507;28;20040;-69
2020/12/04 00:44:05;;;;;;;142.40;60.15;;;6.30;82.00;;;;;;5051728;28;20025;-68
2020/12/04 00:46:31;;;;;;;204.02;88.97;;;6.30;82.30;;;;;;5053570;28;20104;-66
2020/12/04 00:48:57;;;;;;;157.70;73.97;;;6.30;82.10;;;;;;5053216;28;20036;-68
2020/12/04 00:51:22;;;;;;;30.80;17.02;;;6.30;82.30;;;;;;5054039;28;20457;-67
2020/12/04 00:53:50;;;;;;;95.47;49.47;;;6.30;82.20;;;;;;5053785;28;20029;-68
2020/12/04 00:56:16;;;;;;;48.20;25.55;;;6.30;82.40;;;;;;5052866;28;20029;-67
2020/12/04 00:58:45;;;;;;;73.78;38.50;;;6.30;82.00;;;;;;5053693;28;20025;-67
2020/12/04 01:01:10;;;;;;;48.97;26.52;;;6.40;82.00;;;;;;5055079;28;20059;-67
2020/12/04 01:03:36;;;;;;;100.93;46.50;;;6.40;81.80;;;;;;5055556;28;20497;-66
2020/12/04 01:06:02;;;;;;;71.97;36.30;;;6.40;82.10;;;;;;5057659;28;20033;-67
2020/12/04 01:08:28;;;;;;;50.22;25.63;;;6.40;81.90;;;;;;5057632;28;20032;-68
2020/12/04 01:10:54;;;;;;;96.78;48.67;;;6.40;82.10;;;;;;5057306;28;20094;-67
2020/12/04 01:13:19;;;;;;;49.90;27.08;;;6.40;81.90;;;;;;5057304;28;20120;-68
2020/12/04 01:15:45;;;;;;;60.40;34.65;;;6.40;82.10;;;;;;5057236;28;20021;-67
2020/12/04 01:18:11;;;;;;;40.47;24.25;;;6.40;82.00;;;;;;5056601;28;20051;-67
2020/12/04 01:20:36;;;;;;;31.52;19.33;;;6.40;82.10;;;;;;5057245;28;20036;-66
2020/12/04 01:23:02;;;;;;;37.15;20.45;;;6.40;81.50;;;;;;5057078;28;20039;-66
2020/12/04 01:25:28;;;;;;;35.40;20.42;;;6.40;81.60;;;;;;5056624;28;20055;-66
2020/12/04 01:27:54;;;;;;;51.08;27.42;;;6.50;81.80;;;;;;5057011;28;20020;-67
2020/12/04 01:30:20;;;;;;;25.63;16.33;;;6.50;81.50;;;;;;5057258;28;20369;-68
2020/12/04 01:32:47;;;;;;;20.40;12.60;;;6.50;81.40;;;;;;5056619;28;20051;-67
2020/12/04 01:35:12;;;;;;;20.92;12.57;;;6.50;81.30;;;;;;5056863;28;20059;-69
2020/12/04 01:37:38;;;;;;;47.40;28.88;;;6.50;81.40;;;;;;5056591;28;20025;-66
2020/12/04 01:40:04;;;;;;;89.15;55.83;;;6.50;81.20;;;;;;5056408;28;20056;-67
2020/12/04 01:42:30;;;;;;;41.15;24.85;;;6.50;81.50;;;;;;5055459;28;20029;-68
2020/12/04 01:44:55;;;;;;;72.13;44.13;;;6.50;81.40;;;;;;5055040;28;20055;-67
2020/12/04 01:47:21;;;;;;;23.10;13.90;;;6.40;81.10;;;;;;5056681;28;20025;-67
2020/12/04 01:49:47;;;;;;;60.45;39.40;;;6.40;81.20;;;;;;5056275;28;20021;-67
2020/12/04 01:52:14;;;;;;;25.05;17.20;;;6.40;81.20;;;;;;5056045;28;20040;-66
2020/12/04 01:54:41;;;;;;;45.03;29.95;;;6.40;81.20;;;;;;5056222;28;20064;-68
2020/12/04 01:57:07;;;;;;;52.80;32.60;;;6.40;81.30;;;;;;5056416;28;20048;-66
2020/12/04 01:59:32;;;;;;;23.98;15.00;;;6.40;81.10;;;;;;5055687;28;20029;-68
2020/12/04 02:02:16;;;;;;;30.77;21.90;;;6.40;81.10;;;;;;5056266;28;20112;-68
2020/12/04 02:04:42;;;;;;;28.70;21.10;;;6.40;81.10;;;;;;5056636;28;20021;-67
2020/12/04 02:07:28;;;;;;;23.55;15.98;;;6.40;81.10;;;;;;5055655;28;20048;-69
2020/12/04 02:10:00;;;;;;;23.90;14.80;;;6.40;81.40;;;;;;5056562;28;20060;-66
2020/12/04 02:12:27;;;;;;;17.60;10.20;;;6.40;81.30;;;;;;5056103;28;20025;-68
2020/12/04 02:14:54;;;;;;;18.30;11.73;;;6.30;81.30;;;;;;5055915;28;20366;-69
2020/12/04 02:17:33;;;;;;;16.92;10.10;;;6.30;81.30;;;;;;5055974;28;20032;-67
2020/12/04 02:20:00;;;;;;;18.60;13.13;;;6.30;81.50;;;;;;5055630;28;20434;-67
2020/12/04 02:22:32;;;;;;;16.75;11.48;;;6.20;81.40;;;;;;5055937;28;20159;-67
2020/12/04 02:24:59;;;;;;;15.80;10.10;;;6.20;81.50;;;;;;5056496;28;20070;-68
2020/12/04 02:27:24;;;;;;;14.00;9.27;;;6.30;81.50;;;;;;5055296;28;20397;-67
2020/12/04 02:29:50;;;;;;;15.40;9.38;;;6.20;81.50;;;;;;5054550;28;20025;-68
2020/12/04 02:32:16;;;;;;;17.25;9.60;;;6.30;81.50;;;;;;5055775;28;20029;-66
2020/12/04 02:34:42;;;;;;;17.15;10.57;;;6.30;81.50;;;;;;5054160;28;20024;-68
2020/12/04 02:37:09;;;;;;;13.73;9.02;;;6.30;81.50;;;;;;5056042;28;20025;-69
2020/12/04 02:39:36;;;;;;;14.85;10.35;;;6.20;81.60;;;;;;5055995;28;20029;-66
2020/12/04 02:42:03;;;;;;;12.85;9.05;;;6.20;81.60;;;;;;5054248;28;20384;-67
2020/12/04 02:44:29;;;;;;;13.82;9.27;;;6.20;81.50;;;;;;5054277;28;20120;-67
2020/12/04 02:46:55;;;;;;;14.15;9.45;;;6.30;81.50;;;;;;5055563;28;20108;-68
2020/12/04 02:49:21;;;;;;;15.30;9.70;;;6.20;81.30;;;;;;5055138;28;20025;-68
2020/12/04 02:51:48;;;;;;;13.35;8.80;;;6.20;81.30;;;;;;5055110;28;20033;-69
2020/12/04 02:54:15;;;;;;;13.23;9.38;;;6.20;81.20;;;;;;5055092;28;20017;-68
2020/12/04 02:56:42;;;;;;;15.27;9.95;;;6.20;81.30;;;;;;5053456;28;20049;-67
2020/12/04 02:59:07;;;;;;;14.60;9.00;;;6.20;81.40;;;;;;5054138;28;20484;-69
2020/12/04 03:01:33;;;;;;;15.13;9.25;;;6.20;81.50;;;;;;5055130;28;20029;-67
2020/12/04 03:03:59;;;;;;;15.95;9.30;;;6.20;81.50;;;;;;5054625;28;20058;-68
2020/12/04 03:06:24;;;;;;;15.18;9.27;;;6.20;81.50;;;;;;5055437;28;20104;-68
2020/12/04 03:08:51;;;;;;;14.57;9.05;;;6.20;81.50;;;;;;5055257;28;20025;-68
2020/12/04 03:11:24;;;;;;;14.57;9.43;;;6.10;81.50;;;;;;5055046;28;20595;-66
2020/12/04 03:13:50;;;;;;;16.10;9.52;;;6.20;81.70;;;;;;5054721;28;20028;-66
2020/12/04 03:16:16;;;;;;;14.98;8.77;;;6.10;81.50;;;;;;5054353;28;20420;-68
2020/12/04 03:18:42;;;;;;;14.25;8.25;;;6.10;81.70;;;;;;5055013;28;20029;-68
2020/12/04 03:21:08;;;;;;;16.15;9.60;;;6.10;81.70;;;;;;5054794;28;20083;-68
2020/12/04 03:23:34;;;;;;;13.88;8.75;;;6.10;81.60;;;;;;5054032;28;20356;-68
2020/12/04 03:25:59;;;;;;;15.73;9.30;;;6.10;81.50;;;;;;5054762;28;20033;-69
2020/12/04 03:28:25;;;;;;;15.10;9.30;;;6.10;81.90;;;;;;5053519;28;20029;-69
2020/12/04 03:30:51;;;;;;;15.40;8.82;;;6.10;81.80;;;;;;5054416;28;20067;-69
2020/12/04 03:33:17;;;;;;;15.00;8.48;;;6.10;82.00;;;;;;5054895;28;20031;-68
2020/12/04 03:35:43;;;;;;;15.85;9.02;;;6.10;81.90;;;;;;5054894;28;20033;-68
2020/12/04 03:38:09;;;;;;;15.65;9.90;;;6.10;81.80;;;;;;5054215;28;20024;-69
2020/12/04 03:40:35;;;;;;;14.57;10.05;;;6.10;82.00;;;;;;5054682;28;20041;-70
2020/12/04 03:43:00;;;;;;;19.05;9.70;;;6.10;82.00;;;;;;5054465;28;20052;-70
2020/12/04 03:45:26;;;;;;;16.17;9.85;;;6.10;81.90;;;;;;5053032;28;20064;-68
2020/12/04 03:47:52;;;;;;;15.45;10.15;;;6.20;82.00;;;;;;5054647;28;20104;-67
2020/12/04 03:50:18;;;;;;;18.42;10.25;;;6.20;82.10;;;;;;5054202;28;20074;-67
2020/12/04 03:52:43;;;;;;;14.43;9.15;;;6.20;82.00;;;;;;5053684;28;20034;-69
2020/12/04 03:55:09;;;;;;;14.55;9.25;;;6.10;82.10;;;;;;5054492;28;20155;-70
2020/12/04 03:57:35;;;;;;;14.50;8.93;;;6.20;82.10;;;;;;5052782;28;20393;-68
2020/12/04 04:00:01;;;;;;;15.27;10.65;;;6.20;82.30;;;;;;5053769;28;20575;-69
2020/12/04 04:02:27;;;;;;;15.05;9.65;;;6.20;82.60;;;;;;5053112;28;20123;-68
2020/12/04 04:04:53;;;;;;;16.25;10.02;;;6.20;82.30;;;;;;5053773;28;20536;-68
2020/12/04 04:07:19;;;;;;;14.90;9.43;;;6.20;82.50;;;;;;5054023;28;20037;-68
2020/12/04 04:09:44;;;;;;;14.82;9.43;;;6.20;82.80;;;;;;5052756;28;20020;-67
2020/12/04 04:12:10;;;;;;;15.65;9.65;;;6.20;82.50;;;;;;5053611;28;20779;-68
2020/12/04 04:14:36;;;;;;;14.88;9.20;;;6.20;82.80;;;;;;5054203;28;20033;-67
2020/12/04 04:17:02;;;;;;;14.90;9.10;;;6.20;82.60;;;;;;5053667;28;20033;-66
2020/12/04 04:19:28;;;;;;;16.80;9.25;;;6.20;82.70;;;;;;5053762;28;20078;-68
2020/12/04 04:21:55;;;;;;;16.23;10.18;;;6.20;82.60;;;;;;5053813;28;20445;-66
2020/12/04 04:24:21;;;;;;;16.00;9.48;;;6.30;82.70;;;;;;5053031;28;20366;-68
2020/12/04 04:26:51;;;;;;;16.30;9.48;;;6.30;82.70;;;;;;5052067;28;20044;-66
2020/12/04 04:29:17;;;;;;;15.27;9.55;;;6.30;82.40;;;;;;5053311;28;20032;-67
2020/12/04 04:31:43;;;;;;;16.10;9.82;;;6.30;82.40;;;;;;5053701;28;20025;-66
2020/12/04 04:34:08;;;;;;;16.42;9.68;;;6.40;82.40;;;;;;5053269;28;20025;-68
2020/12/04 04:36:35;;;;;;;17.08;10.23;;;6.30;82.40;;;;;;5052704;28;20032;-69
2020/12/04 04:39:01;;;;;;;14.60;9.48;;;6.40;82.20;;;;;;5053337;28;20543;-69
2020/12/04 04:41:27;;;;;;;16.35;9.48;;;6.40;81.70;;;;;;5053253;28;20056;-69
2020/12/04 04:43:54;;;;;;;16.92;9.98;;;6.40;81.70;;;;;;5053558;28;20100;-69
2020/12/04 04:46:47;;;;;;;16.30;9.63;;;6.40;81.80;;;;;;5053590;28;20040;-68
2020/12/04 04:49:27;;;;;;;17.05;10.18;;;6.40;81.70;;;;;;5053273;28;20025;-68
2020/12/04 04:51:54;;;;;;;42.08;22.15;;;6.40;81.50;;;;;;5053516;28;20033;-68
2020/12/04 04:54:22;;;;;;;26.73;14.93;;;6.40;81.80;;;;;;5053492;28;20075;-67
2020/12/04 04:56:50;;;;;;;46.85;22.77;;;6.40;81.60;;;;;;5053370;28;20048;-68
2020/12/04 04:59:22;;;;;;;30.05;16.90;;;6.40;81.70;;;;;;5053517;28;20374;-68
2020/12/04 05:01:50;;;;;;;25.35;13.90;;;6.40;81.80;;;;;;5053307;28;20029;-69
2020/12/04 05:04:17;;;;;;;25.02;13.70;;;6.40;81.60;;;;;;5052938;28;20334;-67
2020/12/04 05:06:43;;;;;;;33.03;17.40;;;6.40;81.70;;;;;;5053088;28;20031;-67
2020/12/04 05:09:15;;;;;;;118.55;52.33;;;6.40;81.60;;;;;;5052812;28;20539;-70
2020/12/04 05:11:54;;;;;;;47.10;25.23;;;6.40;81.50;;;;;;5053406;28;20036;-67
2020/12/04 05:14:22;;;;;;;60.67;34.88;;;6.40;81.60;;;;;;5053190;28;20392;-68
2020/12/04 05:16:52;;;;;;;36.13;20.83;;;6.40;81.50;;;;;;5053015;28;20021;-68
2020/12/04 05:19:31;;;;;;;27.45;16.45;;;6.40;81.50;;;;;;5053614;28;20060;-67
2020/12/04 05:22:16;;;;;;;48.10;27.23;;;6.40;81.50;;;;;;5052966;28;20025;-66
2020/12/04 05:24:44;;;;;;;26.63;14.75;;;6.50;81.60;;;;;;5053594;28;20480;-68
2020/12/04 05:27:26;;;;;;;32.30;19.48;;;6.50;81.60;;;;;;5053228;28;20025;-68
2020/12/04 05:29:54;;;;;;;18.23;9.95;;;6.50;81.60;;;;;;5052976;28;20071;-68
2020/12/04 05:32:21;;;;;;;25.38;15.68;;;6.50;81.40;;;;;;5053189;28;20053;-71
2020/12/04 05:34:46;;;;;;;32.80;19.75;;;6.50;81.60;;;;;;5053176;28;20112;-70
2020/12/04 05:37:16;;;;;;;18.27;12.10;;;6.50;81.50;;;;;;5051881;28;20128;-69
2020/12/04 05:39:44;;;;;;;28.80;16.50;;;6.40;81.40;;;;;;5052324;28;20431;-66
2020/12/04 05:42:10;;;;;;;26.42;16.88;;;6.40;81.60;;;;;;5053002;28;20516;-68
2020/12/04 05:44:52;;;;;;;20.67;13.07;;;6.50;81.60;;;;;;5052714;28;20108;-69
2020/12/04 05:47:19;;;;;;;20.08;11.55;;;6.40;82.40;;;;;;5054974;28;20520;-67
2020/12/04 05:49:45;;;;;;;19.10;11.32;;;6.40;81.60;;;;;;5055356;28;20036;-69
2020/12/04 05:52:14;;;;;;;24.90;18.48;;;6.40;81.50;;;;;;5056255;28;20365;-67
2020/12/04 05:54:42;;;;;;;19.13;13.02;;;6.50;81.50;;;;;;5056818;28;20366;-68
2020/12/04 05:57:10;;;;;;;15.93;9.55;;;6.40;81.80;;;;;;5056071;28;20045;-68
2020/12/04 05:59:36;;;;;;;15.05;9.50;;;6.40;81.50;;;;;;5056397;28;20032;-68
2020/12/04 06:02:02;;;;;;;20.20;11.18;;;6.50;81.40;;;;;;5056851;28;20032;-69
2020/12/04 06:04:29;;;;;;;18.40;10.32;;;6.50;81.60;;;;;;5056495;28;20461;-68
2020/12/04 06:06:56;;;;;;;17.85;11.18;;;6.50;81.50;;;;;;5056294;28;20040;-68
2020/12/04 06:09:23;;;;;;;19.95;12.20;;;6.50;81.50;;;;;;5056559;28;20043;-69
2020/12/04 06:11:49;;;;;;;18.30;12.10;;;6.50;81.70;;;;;;5055887;28;20029;-67
2020/12/04 06:14:22;;;;;;;18.45;11.88;;;6.50;81.60;;;;;;5056151;28;20351;-67
2020/12/04 06:17:00;;;;;;;21.25;11.77;;;6.50;81.70;;;;;;5056231;28;20424;-68
2020/12/04 06:19:30;;;;;;;18.33;11.02;;;6.50;81.50;;;;;;5055759;28;20036;-67
2020/12/04 06:22:10;;;;;;;18.88;11.70;;;6.50;81.40;;;;;;5055965;28;20111;-69
2020/12/04 06:24:54;;;;;;;20.85;12.57;;;6.50;81.50;;;;;;5056067;28;20036;-67
2020/12/04 06:27:44;;;;;;;23.10;11.80;;;6.50;81.60;;;;;;5055602;28;20473;-68
2020/12/04 06:30:12;;;;;;;25.52;13.57;;;6.50;81.70;;;;;;5055561;28;20493;-66
2020/12/04 06:32:49;;;;;;;16.42;10.82;;;6.50;81.60;;;;;;5055328;28;20465;-69
2020/12/04 06:35:35;;;;;;;17.63;10.98;;;6.50;81.40;;;;;;5055930;28;20021;-70
2020/12/04 06:38:00;;;;;;;17.25;10.77;;;6.50;81.10;;;;;;5054935;28;20087;-70
2020/12/04 06:40:31;;;;;;;16.95;10.65;;;6.50;81.30;;;;;;5055296;28;20037;-69
2020/12/04 06:42:59;;;;;;;21.48;11.82;;;6.50;81.30;;;;;;5055586;28;20033;-68
2020/12/04 06:45:44;;;;;;;21.85;13.02;;;6.60;81.60;;;;;;5055593;28;20485;-68
2020/12/04 06:48:12;;;;;;;22.45;12.35;;;6.60;81.30;;;;;;5055209;28;20052;-68
2020/12/04 06:50:45;;;;;;;21.00;14.07;;;6.60;81.10;;;;;;5055786;28;20029;-68
2020/12/04 06:53:13;;;;;;;18.55;11.88;;;6.60;81.20;;;;;;5055174;28;20025;-68
2020/12/04 06:55:40;;;;;;;19.05;12.50;;;6.60;81.00;;;;;;5054103;28;20131;-69
2020/12/04 06:58:06;;;;;;;19.92;11.27;;;6.60;81.20;;;;;;5054900;28;20102;-70
2020/12/04 07:00:32;;;;;;;19.63;12.13;;;6.60;81.00;;;;;;5054844;28;20488;-69
2020/12/04 07:02:59;;;;;;;19.77;11.90;;;6.60;80.90;;;;;;5054950;28;20033;-68
2020/12/04 07:05:26;;;;;;;18.00;11.77;;;6.60;81.30;;;;;;5055283;28;20025;-65
2020/12/04 07:08:22;;;;;;;14.52;9.73;;;6.70;81.00;;;;;;5055142;28;20449;-67
2020/12/04 07:10:53;;;;;;;18.48;11.40;;;6.70;80.80;;;;;;5050477;28;20499;-67
2020/12/04 07:13:19;;;;;;;28.13;17.88;;;6.70;80.80;;;;;;5055425;28;20048;-69
2020/12/04 07:15:45;;;;;;;20.42;13.00;;;6.70;81.00;;;;;;5054761;28;20033;-66
2020/12/04 07:18:11;;;;;;;19.30;12.27;;;6.70;81.00;;;;;;5054923;28;20025;-67
2020/12/04 07:20:37;;;;;;;20.25;13.13;;;6.70;80.80;;;;;;5054590;28;20033;-67
2020/12/04 07:23:07;;;;;;;20.55;12.40;;;6.70;80.90;;;;;;5054564;28;20029;-66
2020/12/04 07:25:34;;;;;;;21.60;13.27;;;6.70;80.80;;;;;;5055021;28;20029;-68
2020/12/04 07:28:01;;;;;;;21.83;12.55;;;6.70;80.60;;;;;;5053184;28;20427;-67
2020/12/04 07:30:29;;;;;;;20.80;13.20;;;6.80;80.90;;;;;;5054624;28;20469;-67
2020/12/04 07:32:55;;;;;;;19.55;12.25;;;6.80;80.70;;;;;;5055221;28;20083;-68
2020/12/04 07:35:23;;;;;;;21.13;13.95;;;6.80;80.60;;;;;;5054670;28;20064;-69
2020/12/04 07:37:49;;;;;;;21.42;13.32;;;6.90;80.40;;;;;;5053254;28;20029;-67
2020/12/04 07:40:16;;;;;;;16.65;11.32;;;6.80;80.20;;;;;;5054754;28;20086;-67
2020/12/04 07:42:43;;;;;;;20.35;12.60;;;6.80;80.20;;;;;;5053897;28;20029;-67
2020/12/04 07:45:14;;;;;;;23.30;12.68;;;6.80;80.30;;;;;;5054142;28;20053;-65
2020/12/04 07:47:42;;;;;;;23.98;13.43;;;6.90;80.20;;;;;;5054959;28;20048;-67
2020/12/04 07:50:10;;;;;;;20.50;12.45;;;6.90;80.00;;;;;;5054298;28;20059;-67
2020/12/04 07:52:36;;;;;;;18.73;11.23;;;6.90;80.40;;;;;;5053491;28;20096;-67
2020/12/04 07:55:09;;;;;;;22.15;12.73;;;6.90;79.80;;;;;;5053685;28;20466;-66
2020/12/04 07:57:55;;;;;;;22.33;13.23;;;6.90;79.70;;;;;;5052906;28;20099;-67
2020/12/04 08:00:20;;;;;;;22.85;12.70;;;6.90;79.80;;;;;;5053880;28;20025;-68
2020/12/04 08:02:46;;;;;;;26.42;15.73;;;7.00;79.70;;;;;;5052785;28;20066;-67
2020/12/04 08:05:20;;;;;;;21.63;12.63;;;7.00;79.70;;;;;;5053896;28;20021;-67
2020/12/04 08:07:53;;;;;;;23.77;14.53;;;7.00;79.70;;;;;;5054277;28;20060;-67
2020/12/04 08:10:22;;;;;;;30.52;18.88;;;7.00;80.10;;;;;;5053851;28;20266;-66
2020/12/04 08:12:49;;;;;;;45.30;17.13;;;7.00;80.10;;;;;;5054301;28;20048;-66
2020/12/04 08:15:21;;;;;;;31.85;20.05;;;7.00;80.70;;;;;;5053550;28;20028;-67
2020/12/04 08:17:47;;;;;;;31.45;17.80;;;7.00;80.10;;;;;;5053655;28;20029;-67
2020/12/04 08:20:17;;;;;;;30.10;18.95;;;7.10;80.40;;;;;;5054313;28;20036;-70
2020/12/04 08:22:49;;;;;;;92.45;57.47;;;7.10;79.50;;;;;;5053831;28;20033;-68
2020/12/04 08:25:26;;;;;;;28.70;19.13;;;7.10;79.80;;;;;;5053664;28;20029;-69
2020/12/04 08:27:53;;;;;;;25.85;15.25;;;7.10;79.40;;;;;;5052596;28;20029;-69
2020/12/04 08:30:23;;;;;;;26.77;17.52;;;7.20;79.80;;;;;;5053723;28;20033;-68
2020/12/04 08:33:10;;;;;;;136.07;56.17;;;7.20;79.90;;;;;;5053510;28;20028;-67
2020/12/04 08:35:41;;;;;;;358.98;135.60;;;7.20;79.80;;;;;;5053477;28;20037;-67
2020/12/04 08:38:09;;;;;;;282.23;99.78;;;7.30;79.00;;;;;;5053677;28;20066;-69
2020/12/04 08:40:36;;;;;;;348.50;127.57;;;7.30;79.10;;;;;;5053269;28;20033;-69
2020/12/04 08:43:24;;;;;;;301.42;113.05;;;7.30;79.10;;;;;;5052326;28;20029;-67
2020/12/04 08:45:55;;;;;;;193.98;80.00;;;7.30;78.80;;;;;;5053529;28;20029;-67
2020/12/04 08:48:25;;;;;;;428.85;180.10;;;7.30;79.00;;;;;;5053858;28;20531;-67
2020/12/04 08:50:54;;;;;;;147.90;60.90;;;7.40;79.10;;;;;;5053602;28;20021;-67
2020/12/04 08:53:21;;;;;;;96.22;47.92;;;7.40;79.50;;;;;;5053463;28;20039;-67
2020/12/04 08:55:52;;;;;;;104.00;52.00;;;7.40;78.80;;;;;;5054069;28;20491;-68
2020/12/04 08:58:20;;;;;;;77.65;41.42;;;7.50;78.60;;;;;;5052861;28;20496;-67
2020/12/04 09:00:47;;;;;;;115.20;54.28;;;7.60;78.40;;;;;;5052997;28;20060;-67
2020/12/04 09:03:14;;;;;;;199.55;74.70;;;7.60;77.90;;;;;;5053292;28;20047;-68
2020/12/04 09:05:40;;;;;;;126.28;54.15;;;7.60;77.90;;;;;;5052100;28;20120;-66
2020/12/04 09:08:06;;;;;;;88.80;37.13;;;7.60;77.90;;;;;;5051825;28;20113;-65
2020/12/04 09:10:32;;;;;;;140.02;55.03;;;7.70;77.30;;;;;;5053371;28;20457;-68
2020/12/04 09:12:58;;;;;;;287.27;113.57;;;7.70;77.60;;;;;;5052707;28;20025;-66
2020/12/04 09:15:27;;;;;;;136.25;57.28;;;7.70;77.40;;;;;;5051842;28;20025;-66
2020/12/04 09:17:52;;;;;;;88.32;40.10;;;7.80;77.30;;;;;;5053285;28;20047;-68
2020/12/04 09:20:18;;;;;;;279.10;118.05;;;7.80;77.60;;;;;;5051998;28;20405;-66
2020/12/04 09:22:44;;;;;;;83.78;37.33;;;7.80;77.30;;;;;;5055958;28;20461;-68
2020/12/04 09:25:12;;;;;;;70.32;29.85;;;7.80;76.90;;;;;;5056770;28;20033;-69
2020/12/04 09:27:39;;;;;;;90.50;39.70;;;7.80;77.10;;;;;;5056886;28;20047;-67
2020/12/04 09:30:07;;;;;;;156.57;61.60;;;7.90;77.30;;;;;;5057549;28;20021;-68
2020/12/04 09:32:33;;;;;;;85.57;39.38;;;7.90;76.60;;;;;;5056528;28;20064;-65
2020/12/04 09:34:58;;;;;;;170.25;78.72;;;7.90;77.10;;;;;;5056446;28;20021;-68
2020/12/04 09:37:29;;;;;;;183.15;69.93;;;8.00;76.60;;;;;;5056822;28;20373;-66
2020/12/04 09:39:58;;;;;;;94.55;44.88;;;8.00;76.20;;;;;;5055705;28;20021;-66
2020/12/04 09:42:25;;;;;;;93.18;41.78;;;8.00;76.20;;;;;;5055118;28;20049;-66
2020/12/04 09:44:52;;;;;;;42.70;22.08;;;8.00;76.40;;;;;;5054415;28;20028;-67
2020/12/04 09:47:19;;;;;;;185.68;73.30;;;8.00;76.70;;;;;;5054441;28;20092;-66
2020/12/04 09:49:46;;;;;;;54.13;28.45;;;8.00;76.60;;;;;;5054454;28;20477;-65
2020/12/04 09:52:14;;;;;;;122.40;46.30;;;8.00;76.40;;;;;;5056604;28;20080;-66
2020/12/04 09:54:42;;;;;;;138.13;54.38;;;8.00;75.90;;;;;;5056535;28;20028;-66
2020/12/04 09:57:09;;;;;;;121.90;50.08;;;8.10;75.40;;;;;;5055978;28;20373;-66
2020/12/04 09:59:36;;;;;;;94.95;44.05;;;8.00;75.40;;;;;;5056464;28;20115;-67
2020/12/04 10:02:02;;;;;;;43.40;22.48;;;8.10;75.90;;;;;;5056015;28;20033;-66
2020/12/04 10:04:29;;;;;;;120.30;52.85;;;8.10;75.50;;;;;;5056420;28;20112;-67
2020/12/04 10:06:55;;;;;;;90.25;45.28;;;8.20;75.50;;;;;;5055629;28;20063;-65
2020/12/04 10:09:22;;;;;;;145.55;83.40;;;8.20;75.50;;;;;;5055906;28;20021;-66
2020/12/04 10:11:48;;;;;;;104.80;44.85;;;8.30;75.90;;;;;;5054896;28;20043;-69
2020/12/04 10:14:15;;;;;;;77.57;35.30;;;8.30;75.30;;;;;;5054933;28;20025;-68
2020/12/04 10:16:44;;;;;;;145.43;56.63;;;8.40;75.50;;;;;;5055947;28;20025;-66
2020/12/04 10:19:12;;;;;;;86.68;46.53;;;8.50;75.10;;;;;;5055579;28;20060;-66
2020/12/04 10:21:38;;;;;;;100.32;42.88;;;8.50;75.20;;;;;;5054308;28;20411;-67
2020/12/04 10:24:05;;;;;;;103.72;45.53;;;8.50;75.00;;;;;;5054122;28;20029;-68
2020/12/04 10:26:31;;;;;;;78.57;33.25;;;8.60;74.40;;;;;;5054474;28;20021;-67
2020/12/04 10:28:57;;;;;;;75.55;33.28;;;8.60;73.90;;;;;;5055229;28;20095;-66
2020/12/04 10:31:24;;;;;;;67.05;34.90;;;8.70;74.10;;;;;;5055929;28;20473;-67
2020/12/04 10:33:50;;;;;;;89.25;40.03;;;8.90;74.30;;;;;;5055929;28;20369;-67
2020/12/04 10:36:16;;;;;;;68.88;35.80;;;9.00;73.80;;;;;;5055794;28;20025;-66
2020/12/04 10:38:42;;;;;;;468.88;158.15;;;9.00;73.40;;;;;;5055008;28;20029;-68
2020/12/04 10:41:08;;;;;;;222.10;72.03;;;9.10;73.60;;;;;;5055351;28;20071;-66
2020/12/04 10:43:34;;;;;;;189.23;61.13;;;9.10;73.20;;;;;;5055720;28;20033;-66
2020/12/04 10:46:00;;;;;;;313.13;100.32;;;9.10;72.50;;;;;;5055343;28;20047;-68
2020/12/04 10:48:26;;;;;;;158.30;61.67;;;9.10;73.00;;;;;;5055269;28;20025;-66
2020/12/04 10:50:52;;;;;;;78.20;39.70;;;9.20;73.00;;;;;;5055536;28;20021;-67
2020/12/04 10:53:18;;;;;;;94.68;43.80;;;9.30;72.00;;;;;;5055528;28;20035;-67
2020/12/04 10:55:44;;;;;;;118.00;58.10;;;9.50;71.80;;;;;;5055102;28;20071;-68
2020/12/04 10:58:13;;;;;;;64.82;36.15;;;9.60;71.70;;;;;;5055111;28;20366;-66
2020/12/04 11:00:39;;;;;;;86.22;46.28;;;9.70;70.70;;;;;;5054957;28;20029;-66
2020/12/04 11:03:18;;;;;;;122.85;59.38;;;10.00;72.80;;;;;;5055449;28;20036;-68
2020/12/04 11:05:45;;;;;;;60.40;32.15;;;10.20;70.10;;;;;;5054860;28;20473;-66
2020/12/04 11:08:11;;;;;;;42.00;25.85;;;10.50;67.90;;;;;;5053994;28;20017;-66
2020/12/04 11:10:37;;;;;;;76.10;39.67;;;10.70;68.10;;;;;;5053494;28;20037;-67
2020/12/04 11:13:03;;;;;;;56.50;31.45;;;10.90;67.40;;;;;;5052869;28;20350;-67
2020/12/04 11:15:30;;;;;;;83.68;44.83;;;11.10;67.60;;;;;;5053404;28;20044;-68
2020/12/04 11:17:56;;;;;;;50.50;31.10;;;11.30;66.20;;;;;;5053499;28;20039;-68
2020/12/04 11:20:23;;;;;;;72.78;38.40;;;10.80;64.80;;;;;;5053072;28;20108;-68
2020/12/04 11:22:52;;;;;;;159.77;101.30;;;10.60;67.10;;;;;;5053272;28;20461;-67
2020/12/04 11:25:19;;;;;;;162.30;94.20;;;10.40;68.10;;;;;;5053392;28;20079;-68
2020/12/04 11:27:46;;;;;;;119.82;62.45;;;10.30;68.50;;;;;;5053328;28;20025;-68
2020/12/04 11:30:13;;;;;;;124.32;54.83;;;10.20;68.60;;;;;;5054245;28;20017;-66
2020/12/04 11:32:44;;;;;;;223.27;90.18;;;10.10;69.00;;;;;;5054157;28;20025;-66
2020/12/04 11:35:11;;;;;;;103.90;44.35;;;10.30;70.20;;;;;;5054329;28;20538;-68
2020/12/04 11:37:37;;;;;;;143.02;60.22;;;10.40;69.30;;;;;;5054585;28;20082;-66
2020/12/04 11:40:05;;;;;;;376.52;145.80;;;10.30;68.30;;;;;;5054194;28;20052;-67
2020/12/04 11:42:31;;;;;;;159.75;66.65;;;10.30;69.20;;;;;;5054460;28;20029;-67
2020/12/04 11:44:57;;;;;;;318.63;137.85;;;10.20;69.40;;;;;;5053726;28;20036;-67
2020/12/04 11:47:26;;;;;;;323.25;155.10;;;10.20;69.80;;;;;;5053746;28;20075;-67
2020/12/04 11:49:52;;;;;;;226.57;97.68;;;10.10;69.90;;;;;;5054155;28;20083;-66
2020/12/04 11:52:18;;;;;;;116.07;52.65;;;10.20;70.10;;;;;;5054380;28;20373;-66
2020/12/04 11:54:45;;;;;;;144.77;61.88;;;10.10;70.10;;;;;;5054225;28;20022;-66
2020/12/04 11:57:11;;;;;;;133.43;60.58;;;10.20;70.50;;;;;;5054370;28;20428;-67
2020/12/04 11:59:37;;;;;;;87.63;40.83;;;10.20;70.00;;;;;;5052906;28;20028;-65
2020/12/04 12:02:03;;;;;;;195.32;91.93;;;10.30;70.00;;;;;;5053808;28;20164;-68
2020/12/04 12:04:29;;;;;;;231.45;103.60;;;10.40;69.50;;;;;;5054111;28;20037;-67
2020/12/04 12:06:55;;;;;;;128.48;60.50;;;10.40;69.90;;;;;;5054291;28;20358;-66
2020/12/04 12:09:21;;;;;;;233.40;106.00;;;10.30;70.20;;;;;;5053890;28;20369;-66
2020/12/04 12:11:47;;;;;;;117.93;54.75;;;10.30;70.30;;;;;;5054279;28;20040;-67
2020/12/04 12:14:13;;;;;;;419.83;194.23;;;10.40;70.80;;;;;;5053708;28;20025;-67
2020/12/04 12:16:38;;;;;;;36.85;21.77;;;10.50;70.20;;;;;;5053707;28;20063;-67
2020/12/04 12:19:04;;;;;;;132.07;60.55;;;10.50;69.90;;;;;;5053916;28;20037;-67
2020/12/04 12:21:30;;;;;;;94.28;48.25;;;10.70;70.00;;;;;;5053570;28;20035;-66
2020/12/04 12:23:56;;;;;;;58.50;32.78;;;10.60;69.70;;;;;;5053576;28;20029;-66
2020/12/04 12:26:22;;;;;;;70.38;36.63;;;10.70;70.00;;;;;;5054099;28;20025;-66
2020/12/04 12:28:48;;;;;;;105.18;52.60;;;11.30;67.40;;;;;;5053101;28;20028;-66
2020/12/04 12:31:13;;;;;;;171.55;83.95;;;11.70;65.60;;;;;;5053798;28;20454;-67
2020/12/04 12:33:39;;;;;;;54.75;32.58;;;11.50;65.50;;;;;;5053746;28;20036;-68
2020/12/04 12:36:05;;;;;;;139.95;72.07;;;11.90;65.40;;;;;;5053675;28;20056;-67
2020/12/04 12:38:31;;;;;;;105.63;54.70;;;12.30;64.20;;;;;;5053339;28;20059;-66